Time;durP1;ratioP1;P1;durP2;ratioP2;P2;SDS_P1;SDS_P2;PMS_P1;PMS_P2;Temp;Humidity;BMP_temperature;BMP_pressure;BME280_temperature;BME280_humidity;BME280_pressure;Samples;Min_cycle;Max_cycle;Signal;HPM_P1;HPM_P2
2022/10/22 00:01:26;;;;;;;2.78;0.90;;;;;;;-146.48;100.00;114613.41;5323576;28;20027;-71
2022/10/22 00:03:57;;;;;;;7.32;1.08;;;;;;;-146.48;100.00;114613.41;5323804;28;20028;-72
2022/10/22 00:06:28;;;;;;;4.60;1.00;;;;;;;-146.48;100.00;114613.41;5322269;28;20039;-72
2022/10/22 00:09:00;;;;;;;2.42;0.90;;;;;;;-146.48;100.00;114613.41;5323910;28;20417;-72
2022/10/22 00:11:31;;;;;;;5.53;0.93;;;;;;;-146.48;100.00;114613.41;5323079;28;20156;-72
2022/10/22 00:14:03;;;;;;;4.32;0.98;;;;;;;-146.48;100.00;114613.41;5322897;28;20015;-71
2022/10/22 00:16:34;;;;;;;4.18;1.00;;;;;;;-146.48;100.00;114613.41;5323051;28;20425;-72
2022/10/22 00:19:07;;;;;;;5.30;1.10;;;;;;;-146.48;100.00;114613.41;5322820;28;20036;-72
2022/10/22 00:21:39;;;;;;;2.85;0.70;;;;;;;-146.48;100.00;114613.41;5323309;28;20433;-72
2022/10/22 00:24:11;;;;;;;4.15;0.95;;;;;;;-146.48;100.00;114613.41;5324205;28;20027;-71
2022/10/22 00:26:43;;;;;;;2.55;1.00;;;;;;;-146.48;100.00;114613.41;5326000;28;20024;-72
2022/10/22 00:29:14;;;;;;;4.90;1.15;;;;;;;-146.48;100.00;114613.41;5327242;28;20064;-71
2022/10/22 00:31:48;;;;;;;3.85;1.15;;;;;;;-146.48;100.00;114613.41;5326758;28;20103;-71
2022/10/22 00:34:21;;;;;;;3.28;0.80;;;;;;;-146.48;100.00;114613.41;5326693;28;20020;-72
2022/10/22 00:36:53;;;;;;;5.45;1.10;;;;;;;-146.48;100.00;114613.41;5326573;28;20034;-72
2022/10/22 00:39:26;;;;;;;3.85;1.10;;;;;;;-146.48;100.00;114613.41;5326897;28;20467;-72
2022/10/22 00:41:58;;;;;;;8.32;1.45;;;;;;;-146.48;100.00;114613.41;5326434;28;20029;-72
2022/10/22 00:45:06;;;;;;;5.05;1.30;;;;;;;-146.48;100.00;114613.41;5326747;28;20146;-72
2022/10/22 00:47:42;;;;;;;2.85;1.10;;;;;;;-146.48;100.00;114613.41;5325702;28;20019;-72
2022/10/22 00:50:19;;;;;;;2.17;0.80;;;;;;;-146.48;100.00;114613.41;5326945;28;20128;-72
2022/10/22 00:52:51;;;;;;;3.08;1.20;;;;;;;-146.48;100.00;114613.41;5326307;28;20123;-72
2022/10/22 00:55:24;;;;;;;4.20;0.93;;;;;;;-146.48;100.00;114613.41;5326008;28;20537;-71
2022/10/22 00:57:57;;;;;;;8.23;1.60;;;;;;;-146.48;100.00;114613.41;5326255;28;20156;-71
2022/10/22 01:00:28;;;;;;;3.92;1.27;;;;;;;-146.48;100.00;114613.41;5326247;28;20110;-71
2022/10/22 01:03:00;;;;;;;3.22;1.17;;;;;;;-146.48;100.00;114613.41;5325915;28;20107;-71
2022/10/22 01:05:45;;;;;;;6.07;1.23;;;;;;;-146.48;100.00;114613.41;5326078;28;20024;-71
2022/10/22 01:08:45;;;;;;;8.18;1.35;;;;;;;-146.48;100.00;114613.41;5325914;28;20098;-71
2022/10/22 01:11:42;;;;;;;4.05;1.30;;;;;;;-146.48;100.00;114613.41;5326489;28;20034;-71
2022/10/22 01:14:33;;;;;;;5.25;1.55;;;;;;;-146.48;100.00;114613.41;5326363;28;20035;-71
2022/10/22 01:17:10;;;;;;;6.60;1.30;;;;;;;-146.48;100.00;114613.41;5325624;28;20108;-71
2022/10/22 01:19:54;;;;;;;6.85;1.10;;;;;;;-146.48;100.00;114613.41;5325739;28;20467;-71
2022/10/22 01:22:34;;;;;;;7.40;1.30;;;;;;;-146.48;100.00;114613.41;5325312;28;20053;-72
2022/10/22 01:25:29;;;;;;;6.13;1.88;;;;;;;-146.48;100.00;114613.41;5326493;28;20048;-72
2022/10/22 01:28:29;;;;;;;5.53;1.30;;;;;;;-146.48;100.00;114613.41;5326132;28;20418;-71
2022/10/22 01:31:04;;;;;;;4.88;1.20;;;;;;;-146.48;100.00;114613.41;5325274;28;20032;-71
2022/10/22 01:33:37;;;;;;;5.20;1.40;;;;;;;-146.48;100.00;114613.41;5325437;28;20395;-71
2022/10/22 01:36:10;;;;;;;9.50;1.60;;;;;;;-146.48;100.00;114613.41;5325099;27;20039;-71
2022/10/22 01:38:44;;;;;;;4.30;1.63;;;;;;;-146.48;100.00;114613.41;5325365;28;20084;-73
2022/10/22 01:41:16;;;;;;;4.28;1.20;;;;;;;-146.48;100.00;114613.41;5326112;28;20402;-71
2022/10/22 01:43:47;;;;;;;7.72;1.38;;;;;;;-146.48;100.00;114613.41;5324487;28;20205;-73
2022/10/22 01:46:21;;;;;;;4.75;1.50;;;;;;;-146.48;100.00;114613.41;5325852;28;20095;-72
2022/10/22 01:49:21;;;;;;;3.30;1.40;;;;;;;-146.48;100.00;114613.41;5325145;28;20398;-72
2022/10/22 01:52:17;;;;;;;6.70;1.25;;;;;;;-146.48;100.00;114613.41;5324471;28;20114;-72
2022/10/22 01:55:01;;;;;;;6.05;1.55;;;;;;;-146.48;100.00;114613.41;5325001;28;20039;-72
2022/10/22 01:57:52;;;;;;;4.28;1.80;;;;;;;-146.48;100.00;114613.41;5323963;28;20031;-72
2022/10/22 02:00:23;;;;;;;4.13;1.33;;;;;;;-146.48;100.00;114613.41;5325601;28;20031;-72
2022/10/22 02:03:06;;;;;;;3.70;1.23;;;;;;;-146.48;100.00;114613.41;5325195;28;20023;-72
2022/10/22 02:05:48;;;;;;;6.43;1.70;;;;;;;-146.48;100.00;114613.41;5324192;28;20081;-72
2022/10/22 02:08:24;;;;;;;8.88;1.70;;;;;;;-146.48;100.00;114613.41;5325472;28;20054;-72
2022/10/22 02:10:57;;;;;;;4.03;1.70;;;;;;;-146.48;100.00;114613.41;5325065;28;20038;-72
2022/10/22 02:13:52;;;;;;;4.50;1.38;;;;;;;-146.48;100.00;114613.41;5323688;28;20031;-72
2022/10/22 02:16:33;;;;;;;5.37;1.57;;;;;;;-146.48;100.00;114613.41;5325163;28;20031;-71
2022/10/22 02:19:18;;;;;;;5.68;1.60;;;;;;;-146.48;100.00;114613.41;5324513;28;20032;-71
2022/10/22 02:21:50;;;;;;;6.32;1.75;;;;;;;-146.48;100.00;114613.41;5324412;28;20028;-71
2022/10/22 02:24:22;;;;;;;6.10;1.25;;;;;;;-146.48;100.00;114613.41;5324954;28;20022;-72
2022/10/22 02:27:00;;;;;;;3.83;1.30;;;;;;;-146.48;100.00;114613.41;5323756;28;20471;-71
2022/10/22 02:29:43;;;;;;;6.32;1.70;;;;;;;-146.48;100.00;114613.41;5324308;28;20019;-72
2022/10/22 02:32:19;;;;;;;4.03;1.30;;;;;;;-146.48;100.00;114613.41;5324415;28;20534;-72
2022/10/22 02:34:53;;;;;;;4.55;1.70;;;;;;;-146.48;100.00;114613.41;5324197;28;20028;-72
2022/10/22 02:37:25;;;;;;;6.55;1.70;;;;;;;-146.48;100.00;114613.41;5324525;28;20035;-72
2022/10/22 02:39:56;;;;;;;2.65;1.23;;;;;;;-146.48;100.00;114613.41;5324202;28;20060;-72
2022/10/22 02:42:29;;;;;;;4.78;1.70;;;;;;;-146.48;100.00;114613.41;5324225;28;20055;-72
2022/10/22 02:45:00;;;;;;;5.03;1.60;;;;;;;-146.48;100.00;114613.41;5324682;28;20062;-72
2022/10/22 02:47:31;;;;;;;8.05;1.77;;;;;;;-146.48;100.00;114613.41;5322802;28;20435;-72
2022/10/22 02:50:04;;;;;;;6.95;1.67;;;;;;;-146.48;100.00;114613.41;5324731;28;20095;-72
2022/10/22 02:52:35;;;;;;;4.50;1.85;;;;;;;-146.48;100.00;114613.41;5323908;28;20030;-72
2022/10/22 02:55:07;;;;;;;6.57;1.70;;;;;;;-146.48;100.00;114613.41;5323679;28;20032;-72
2022/10/22 02:57:38;;;;;;;10.65;1.85;;;;;;;-146.48;100.00;114613.41;5323673;28;20043;-72
2022/10/22 03:00:10;;;;;;;6.68;2.00;;;;;;;-146.48;100.00;114613.41;5324309;28;20020;-72
2022/10/22 03:02:41;;;;;;;6.63;1.67;;;;;;;-146.48;100.00;114613.41;5322994;28;20522;-72
2022/10/22 03:05:13;;;;;;;4.82;1.58;;;;;;;-146.48;100.00;114613.41;5324314;28;20467;-72
2022/10/22 03:07:44;;;;;;;4.40;2.17;;;;;;;-146.48;100.00;114613.41;5322923;28;20739;-72
2022/10/22 03:10:15;;;;;;;3.30;1.52;;;;;;;-146.48;100.00;114613.41;5324252;28;20035;-72
2022/10/22 03:12:47;;;;;;;5.22;1.85;;;;;;;-146.48;100.00;114613.41;5323845;28;20016;-71
2022/10/22 03:15:18;;;;;;;5.50;1.83;;;;;;;-146.48;100.00;114613.41;5323643;28;20028;-72
2022/10/22 03:17:49;;;;;;;4.43;1.65;;;;;;;-146.48;100.00;114613.41;5323350;28;20039;-73
2022/10/22 03:20:20;;;;;;;8.40;1.90;;;;;;;-146.48;100.00;114613.41;5324140;28;20028;-72
2022/10/22 03:22:52;;;;;;;4.63;1.35;;;;;;;-146.48;100.00;114613.41;5322649;28;20374;-73
2022/10/22 03:25:27;;;;;;;8.48;1.77;;;;;;;-146.48;100.00;114613.41;5323902;28;20400;-73
2022/10/22 03:28:01;;;;;;;8.23;1.95;;;;;;;-146.48;100.00;114613.41;5323893;28;20046;-73
2022/10/22 03:30:33;;;;;;;5.70;2.28;;;;;;;-146.48;100.00;114613.41;5322678;28;20115;-72
2022/10/22 03:33:04;;;;;;;4.18;1.42;;;;;;;-146.48;100.00;114613.41;5324057;28;20112;-73
2022/10/22 03:35:42;;;;;;;5.70;1.23;;;;;;;-146.48;100.00;114613.41;5322731;28;20401;-70
2022/10/22 03:38:14;;;;;;;7.43;1.50;;;;;;;-146.48;100.00;114613.41;5324045;28;20024;-71
2022/10/22 03:40:46;;;;;;;5.13;1.58;;;;;;;-146.48;100.00;114613.41;5323439;28;20027;-71
2022/10/22 03:43:17;;;;;;;4.65;1.38;;;;;;;-146.48;100.00;114613.41;5323067;28;20016;-72
2022/10/22 03:45:48;;;;;;;9.18;1.85;;;;;;;-146.48;100.00;114613.41;5323485;28;20429;-71
2022/10/22 03:48:20;;;;;;;4.43;1.70;;;;;;;-146.48;100.00;114613.41;5323982;28;20016;-71
2022/10/22 03:50:51;;;;;;;7.13;1.70;;;;;;;-146.48;100.00;114613.41;5322312;28;20088;-71
2022/10/22 03:53:22;;;;;;;7.82;2.13;;;;;;;-146.48;100.00;114613.41;5323805;28;20352;-71
2022/10/22 03:55:53;;;;;;;6.15;1.40;;;;;;;-146.48;100.00;114613.41;5323083;28;20021;-71
2022/10/22 03:58:25;;;;;;;6.53;1.80;;;;;;;-146.48;100.00;114613.41;5322810;28;20036;-72
2022/10/22 04:00:56;;;;;;;8.43;1.63;;;;;;;-146.48;100.00;114613.41;5327526;28;20101;-72
2022/10/22 04:03:27;;;;;;;9.88;1.75;;;;;;;-146.48;100.00;114613.41;5327269;28;20050;-72
2022/10/22 04:06:17;;;;;;;6.20;1.92;;;;;;;-146.48;100.00;114613.41;5327006;28;20355;-72
2022/10/22 04:08:49;;;;;;;8.70;1.60;;;;;;;-146.48;100.00;114613.41;5327208;28;20316;-72
2022/10/22 04:11:20;;;;;;;6.57;1.77;;;;;;;-146.48;100.00;114613.41;5327146;28;20019;-73
2022/10/22 04:13:51;;;;;;;8.90;1.85;;;;;;;-146.48;100.00;114613.41;5326975;27;20032;-72
2022/10/22 04:16:22;;;;;;;6.38;1.73;;;;;;;-146.48;100.00;114613.41;5328109;28;20149;-72
2022/10/22 04:18:54;;;;;;;7.80;1.88;;;;;;;-146.48;100.00;114613.41;5325934;28;20036;-72
2022/10/22 04:21:25;;;;;;;14.57;2.22;;;;;;;-146.48;100.00;114613.41;5326850;28;20471;-73
2022/10/22 04:23:56;;;;;;;7.90;1.85;;;;;;;-146.48;100.00;114613.41;5327676;28;20364;-72
2022/10/22 04:26:28;;;;;;;6.85;1.45;;;;;;;-146.48;100.00;114613.41;5325862;28;20031;-73
2022/10/22 04:28:59;;;;;;;5.68;1.50;;;;;;;-146.48;100.00;114613.41;5327020;28;20040;-73
2022/10/22 04:31:30;;;;;;;9.57;1.95;;;;;;;-146.48;100.00;114613.41;5326736;28;20053;-73
2022/10/22 04:34:02;;;;;;;5.95;1.65;;;;;;;-146.48;100.00;114613.41;5326662;27;20073;-72
2022/10/22 04:36:33;;;;;;;6.25;1.35;;;;;;;-146.48;100.00;114613.41;5326658;28;20109;-73
2022/10/22 04:39:05;;;;;;;9.05;1.80;;;;;;;-146.48;100.00;114613.41;5326387;28;20024;-73
2022/10/22 04:41:37;;;;;;;5.82;1.30;;;;;;;-146.48;100.00;114613.41;5326468;28;20391;-72
2022/10/22 04:44:09;;;;;;;7.53;1.63;;;;;;;-146.48;100.00;114613.41;5327294;28;20143;-73
2022/10/22 04:46:40;;;;;;;12.38;1.52;;;;;;;-146.48;100.00;114613.41;5325925;28;20057;-72
2022/10/22 04:49:12;;;;;;;9.95;1.95;;;;;;;-146.48;100.00;114613.41;5326970;28;20107;-72
2022/10/22 04:51:43;;;;;;;8.13;1.90;;;;;;;-146.48;100.00;114613.41;5326442;28;20030;-72
2022/10/22 04:54:14;;;;;;;11.68;1.77;;;;;;;-146.48;100.00;114613.41;5326154;28;20031;-72
2022/10/22 04:56:45;;;;;;;10.65;2.33;;;;;;;-146.48;100.00;114613.41;5326117;28;20035;-72
2022/10/22 04:59:17;;;;;;;7.65;1.92;;;;;;;-146.48;100.00;114613.41;5326912;28;20054;-72
2022/10/22 05:01:48;;;;;;;8.07;2.90;;;;;;;-146.48;100.00;114613.41;5325372;28;20114;-72
2022/10/22 05:04:19;;;;;;;10.45;1.98;;;;;;;-146.48;100.00;114613.41;5326694;28;20024;-73
2022/10/22 05:06:51;;;;;;;12.68;2.80;;;;;;;-146.48;100.00;114613.41;5325979;28;20038;-73
2022/10/22 05:09:22;;;;;;;11.13;2.20;;;;;;;-146.48;100.00;114613.41;5325859;28;20070;-72
2022/10/22 05:11:54;;;;;;;10.63;2.30;;;;;;;-146.48;100.00;114613.41;5325550;28;20459;-73
2022/10/22 05:14:26;;;;;;;9.43;1.70;;;;;;;-146.48;100.00;114613.41;5325261;28;20535;-74
2022/10/22 05:16:58;;;;;;;11.43;2.30;;;;;;;-146.48;100.00;114613.41;5326439;28;20020;-72
2022/10/22 05:19:30;;;;;;;6.72;2.10;;;;;;;-146.48;100.00;114613.41;5325912;28;20050;-73
2022/10/22 05:22:03;;;;;;;12.77;1.90;;;;;;;-146.48;100.00;114613.41;5325771;28;20453;-72
2022/10/22 05:24:36;;;;;;;7.63;1.73;;;;;;;-146.48;100.00;114613.41;5325700;28;20027;-73
2022/10/22 05:27:07;;;;;;;8.63;2.38;;;;;;;-146.48;100.00;114613.41;5326208;28;20094;-72
2022/10/22 05:29:38;;;;;;;6.72;1.60;;;;;;;-146.48;100.00;114613.41;5324687;28;20065;-72
2022/10/22 05:32:09;;;;;;;7.65;1.80;;;;;;;-146.48;100.00;114613.41;5326344;28;20023;-72
2022/10/22 05:34:41;;;;;;;8.70;2.00;;;;;;;-146.48;100.00;114613.41;5325542;28;20031;-72
2022/10/22 05:37:12;;;;;;;12.02;2.42;;;;;;;-146.48;100.00;114613.41;5325148;27;20028;-72
2022/10/22 05:39:43;;;;;;;7.60;1.45;;;;;;;-146.48;100.00;114613.41;5325443;28;20034;-73
2022/10/22 05:42:14;;;;;;;6.68;1.73;;;;;;;-146.48;100.00;114613.41;5325038;28;20020;-72
2022/10/22 05:44:47;;;;;;;5.43;1.60;;;;;;;-146.48;100.00;114613.41;5325522;28;20031;-72
2022/10/22 05:47:18;;;;;;;6.40;1.60;;;;;;;-146.48;100.00;114613.41;5325979;28;20027;-72
2022/10/22 05:49:49;;;;;;;6.30;1.52;;;;;;;-146.48;100.00;114613.41;5324334;28;20073;-73
2022/10/22 05:52:20;;;;;;;5.22;1.20;;;;;;;-146.48;100.00;114613.41;5325689;28;20027;-72
2022/10/22 05:54:52;;;;;;;8.02;1.85;;;;;;;-146.48;100.00;114613.41;5325234;28;20019;-73
2022/10/22 05:57:23;;;;;;;7.43;1.50;;;;;;;-146.48;100.00;114613.41;5324831;28;20034;-73
2022/10/22 05:59:54;;;;;;;10.27;1.90;;;;;;;-146.48;100.00;114613.41;5325457;28;20020;-73
2022/10/22 06:02:26;;;;;;;10.25;1.80;;;;;;;-146.48;100.00;114613.41;5324851;28;20059;-73
2022/10/22 06:04:57;;;;;;;6.75;1.92;;;;;;;-146.48;100.00;114613.41;5324542;28;20386;-73
2022/10/22 06:07:29;;;;;;;6.90;0.80;;;;;;;-146.48;100.00;114613.41;5324921;28;20528;-73
2022/10/22 06:10:01;;;;;;;7.13;1.27;;;;;;;-146.48;100.00;114613.41;5325534;28;20048;-72
2022/10/22 06:12:32;;;;;;;6.30;1.35;;;;;;;-146.48;100.00;114613.41;5323590;28;20027;-73
2022/10/22 06:15:04;;;;;;;9.32;1.20;;;;;;;-146.48;100.00;114613.41;5324922;28;20069;-73
2022/10/22 06:17:35;;;;;;;8.63;1.55;;;;;;;-146.48;100.00;114613.41;5323400;28;20020;-71
2022/10/22 06:20:07;;;;;;;6.50;1.08;;;;;;;-146.48;100.00;114613.41;5325054;28;20526;-71
2022/10/22 06:22:38;;;;;;;6.60;0.90;;;;;;;-146.48;100.00;114613.41;5323731;28;20027;-72
2022/10/22 06:25:11;;;;;;;4.75;1.10;;;;;;;-146.48;100.00;114613.41;5324009;28;20031;-71
2022/10/22 06:27:48;;;;;;;7.10;0.80;;;;;;;-146.48;100.00;114613.41;5324135;28;20079;-71
2022/10/22 06:30:19;;;;;;;11.10;1.60;;;;;;;-146.48;100.00;114613.41;5325102;28;20416;-72
2022/10/22 06:32:50;;;;;;;4.70;1.02;;;;;;;-146.48;100.00;114613.41;5323249;27;20050;-71
2022/10/22 06:35:22;;;;;;;4.97;0.70;;;;;;;-146.48;100.00;114613.41;5324881;28;20348;-71
2022/10/22 06:37:53;;;;;;;8.38;1.40;;;;;;;-146.48;100.00;114613.41;5323910;28;20130;-72
2022/10/22 06:40:24;;;;;;;6.05;1.02;;;;;;;-146.48;100.00;114613.41;5323691;27;20020;-72
2022/10/22 06:42:58;;;;;;;3.92;0.80;;;;;;;-146.48;100.00;114613.41;5324609;28;20024;-72
2022/10/22 06:45:29;;;;;;;6.85;0.80;;;;;;;-146.48;100.00;114613.41;5323358;28;20489;-72
2022/10/22 06:48:01;;;;;;;5.65;0.82;;;;;;;-146.48;100.00;114613.41;5324575;28;20019;-72
2022/10/22 06:50:35;;;;;;;3.95;0.70;;;;;;;-146.48;100.00;114613.41;5324044;28;20032;-73
2022/10/22 06:53:06;;;;;;;7.13;0.82;;;;;;;-146.48;100.00;114613.41;5323700;28;20028;-73
2022/10/22 06:55:37;;;;;;;5.30;0.90;;;;;;;-146.48;100.00;114613.41;5323784;28;20552;-73
2022/10/22 06:58:08;;;;;;;5.03;0.80;;;;;;;-146.48;100.00;114613.41;5324204;28;20382;-73
2022/10/22 07:00:40;;;;;;;6.63;1.00;;;;;;;-146.48;100.00;114613.41;5323072;28;20390;-73
2022/10/22 07:03:12;;;;;;;8.02;0.77;;;;;;;-146.48;100.00;114613.41;5324245;28;20106;-71
2022/10/22 07:05:44;;;;;;;5.10;0.77;;;;;;;-146.48;100.00;114613.41;5323482;28;20027;-72
2022/10/22 07:08:15;;;;;;;5.13;1.02;;;;;;;-146.48;100.00;114613.41;5323587;28;20554;-72
2022/10/22 07:10:46;;;;;;;8.20;0.80;;;;;;;-146.48;100.00;114613.41;5323711;28;20107;-73
2022/10/22 07:13:17;;;;;;;5.97;0.88;;;;;;;-146.48;100.00;114613.41;5324437;28;20221;-73
2022/10/22 07:15:53;;;;;;;6.00;1.17;;;;;;;-146.48;100.00;114613.41;5323282;28;20106;-73
2022/10/22 07:18:25;;;;;;;3.95;1.02;;;;;;;-146.48;100.00;114613.41;5323603;28;20031;-74
2022/10/22 07:20:57;;;;;;;6.68;0.80;;;;;;;-146.48;100.00;114613.41;5323275;28;20423;-73
2022/10/22 07:23:28;;;;;;;8.50;1.02;;;;;;;-146.48;100.00;114613.41;5323505;28;20027;-73
2022/10/22 07:26:01;;;;;;;3.85;0.57;;;;;;;-146.48;100.00;114613.41;5323763;28;20107;-71
2022/10/22 07:28:38;;;;;;;9.48;1.08;;;;;;;-146.48;100.00;114613.41;5322304;28;20048;-72
2022/10/22 07:31:12;;;;;;;3.80;0.70;;;;;;;-146.48;100.00;114613.41;5324186;28;20451;-72
2022/10/22 07:33:43;;;;;;;5.97;0.70;;;;;;;-146.48;100.00;114613.41;5325100;28;20138;-72
2022/10/22 07:36:19;;;;;;;4.90;0.52;;;;;;;-146.48;100.00;114613.41;5327538;28;20111;-73
2022/10/22 07:38:55;;;;;;;5.40;0.70;;;;;;;-146.48;100.00;114613.41;5327690;28;20035;-72
2022/10/22 07:41:29;;;;;;;8.02;1.02;;;;;;;-146.48;100.00;114613.41;5327853;28;20028;-74
2022/10/22 07:44:00;;;;;;;6.05;1.13;;;;;;;-146.48;100.00;114613.41;5327535;28;20107;-73
2022/10/22 07:46:31;;;;;;;6.72;0.98;;;;;;;-146.48;100.00;114613.41;5327566;28;20546;-73
2022/10/22 07:49:03;;;;;;;4.75;0.60;;;;;;;-146.48;100.00;114613.41;5327402;28;20245;-73
2022/10/22 07:51:34;;;;;;;7.50;0.80;;;;;;;-146.48;100.00;114613.41;5327451;28;20027;-73
2022/10/22 07:54:05;;;;;;;6.03;0.80;;;;;;;-146.48;100.00;114613.41;5328271;28;20496;-73
2022/10/22 07:56:36;;;;;;;3.55;0.60;;;;;;;-146.48;100.00;114613.41;5326584;28;20122;-73
2022/10/22 07:59:08;;;;;;;6.32;0.70;;;;;;;-146.48;100.00;114613.41;5328080;28;20031;-73
2022/10/22 08:01:39;;;;;;;4.22;0.60;;;;;;;-146.48;100.00;114613.41;5327307;28;20015;-72
2022/10/22 08:04:10;;;;;;;7.57;1.20;;;;;;;-146.48;100.00;114613.41;5327429;27;20026;-72
2022/10/22 08:06:42;;;;;;;5.25;0.70;;;;;;;-146.48;100.00;114613.41;5326951;27;20046;-74
2022/10/22 08:09:13;;;;;;;5.97;0.70;;;;;;;-146.48;100.00;114613.41;5327582;28;20360;-75
2022/10/22 08:11:45;;;;;;;4.18;0.55;;;;;;;-146.48;100.00;114613.41;5326346;28;20028;-72
2022/10/22 08:14:16;;;;;;;3.38;0.60;;;;;;;-146.48;100.00;114613.41;5327582;28;20073;-72
2022/10/22 08:16:48;;;;;;;4.57;0.68;;;;;;;-146.48;100.00;114613.41;5327040;28;20015;-73
2022/10/22 08:19:20;;;;;;;2.78;0.77;;;;;;;-146.48;100.00;114613.41;5326645;28;20119;-73
2022/10/22 08:21:51;;;;;;;6.88;0.75;;;;;;;-146.48;100.00;114613.41;5326993;28;20043;-73
2022/10/22 08:24:22;;;;;;;5.90;0.60;;;;;;;-146.48;100.00;114613.41;5326602;28;20062;-72
2022/10/22 08:26:54;;;;;;;4.20;0.70;;;;;;;-146.48;100.00;114613.41;5326875;28;20077;-71
2022/10/22 08:29:26;;;;;;;4.68;0.60;;;;;;;-146.48;100.00;114613.41;5327011;28;20482;-74
2022/10/22 08:31:57;;;;;;;4.30;0.63;;;;;;;-146.48;100.00;114613.41;5326584;27;20069;-73
2022/10/22 08:34:29;;;;;;;3.45;0.50;;;;;;;-146.48;100.00;114613.41;5326731;28;20114;-73
2022/10/22 08:37:00;;;;;;;3.30;0.70;;;;;;;-146.48;100.00;114613.41;5327046;28;20020;-73
2022/10/22 08:39:31;;;;;;;5.60;0.60;;;;;;;-146.48;100.00;114613.41;5325899;28;20020;-73
2022/10/22 08:42:40;;;;;;;6.35;0.60;;;;;;;-146.48;100.00;114613.41;5327129;28;20057;-73
2022/10/22 08:45:40;;;;;;;5.20;0.52;;;;;;;-146.48;100.00;114613.41;5325231;28;20035;-72
2022/10/22 08:48:28;;;;;;;4.57;0.50;;;;;;;-146.48;100.00;114613.41;5305946;28;20085;-73
2022/10/22 08:51:00;;;;;;;4.25;0.65;;;;;;;-146.48;100.00;114613.41;5305869;28;20028;-72
2022/10/22 08:53:52;;;;;;;4.43;0.70;;;;;;;-146.48;100.00;114613.41;5303487;28;20074;-73
2022/10/22 08:56:23;;;;;;;5.65;1.02;;;;;;;-146.48;100.00;114613.41;5305345;28;20027;-73
2022/10/22 08:59:01;;;;;;;10.75;0.90;;;;;;;-146.48;100.00;114613.41;5305203;28;20107;-74
2022/10/22 09:01:38;;;;;;;6.10;0.50;;;;;;;-146.48;100.00;114613.41;5303994;28;20020;-73
2022/10/22 09:04:31;;;;;;;5.65;0.88;;;;;;;-146.48;100.00;114613.41;5305373;28;20031;-73
2022/10/22 09:07:02;;;;;;;3.50;0.50;;;;;;;-146.48;100.00;114613.41;5304574;28;20035;-73
2022/10/22 09:09:41;;;;;;;4.68;0.50;;;;;;;-146.48;100.00;-4087.66;5304862;28;20451;-73
2022/10/22 09:12:16;;;;;;;4.15;0.50;;;;;;;-146.48;100.00;-6058.19;5305210;28;20036;-73
2022/10/22 09:14:48;;;;;;;6.10;0.65;;;;;;;-146.48;100.00;-6570.34;5303779;28;20024;-72
2022/10/22 09:17:44;;;;;;;4.53;0.60;;;;;;;-146.48;100.00;-7074.56;5305221;28;20042;-72
2022/10/22 09:20:27;;;;;;;7.43;0.90;;;;;;;-146.48;100.00;-7192.72;5304363;28;20103;-73
2022/10/22 09:23:32;;;;;;;6.22;0.57;;;;;;;-146.48;100.00;-7444.81;5305005;28;20043;-73
2022/10/22 09:26:12;;;;;;;4.78;0.60;;;;;;;-146.48;100.00;-7232.13;5305053;28;20031;-72
2022/10/22 09:28:49;;;;;;;7.32;0.88;;;;;;;-146.48;100.00;-7444.81;5303437;28;20063;-74
2022/10/22 09:31:20;;;;;;;4.85;0.77;;;;;;;-146.48;100.00;-7436.94;5304942;28;20032;-74
2022/10/22 09:33:51;;;;;;;5.10;0.70;;;;;;;-146.48;100.00;-7334.53;5304374;28;20459;-73
2022/10/22 09:36:22;;;;;;;6.47;0.57;;;;;;;-146.48;100.00;-7342.41;5304028;28;20019;-71
2022/10/22 09:38:54;;;;;;;2.55;0.40;;;;;;;-146.48;100.00;-7659.47;5304019;28;20032;-72
2022/10/22 09:41:31;;;;;;;4.80;0.57;;;;;;;-146.48;100.00;-7440.88;5303111;28;20047;-71
2022/10/22 09:44:05;;;;;;;4.80;0.82;;;;;;;-146.48;100.00;-7431.03;5304229;28;20031;-71
2022/10/22 09:46:42;;;;;;;9.05;0.98;;;;;;;-146.48;100.00;-7454.66;5303942;28;20058;-71
2022/10/22 09:49:19;;;;;;;3.63;0.60;;;;;;;-146.48;100.00;-7486.16;5303623;28;20038;-71
2022/10/22 09:51:58;;;;;;;11.05;0.70;;;;;;;-146.48;100.00;-7407.41;5303654;28;20081;-71
2022/10/22 09:54:32;;;;;;;7.85;0.70;;;;;;;-146.48;100.00;-7192.72;5303516;28;20062;-71
2022/10/22 09:57:15;;;;;;;5.68;0.60;;;;;;;-146.48;100.00;-7249.84;5302359;28;20111;-71
2022/10/22 09:59:49;;;;;;;3.47;0.68;;;;;;;-146.48;100.00;-7163.19;5303686;28;20016;-71
2022/10/22 10:02:26;;;;;;;8.15;0.75;;;;;;;-146.48;100.00;-7320.75;5304136;28;20481;-70
2022/10/22 10:05:01;;;;;;;6.88;1.08;;;;;;;-146.48;100.00;-6857.91;5304083;28;20056;-71
2022/10/22 10:07:34;;;;;;;5.53;0.93;;;;;;;-146.48;100.00;-6852.00;5303434;28;20032;-71
2022/10/22 10:10:20;;;;;;;7.05;0.77;;;;;;;-146.48;100.00;-6436.41;5303515;28;20070;-71
2022/10/22 10:13:00;;;;;;;6.03;0.65;;;;;;;-146.48;100.00;-6495.50;5303458;28;20028;-71
2022/10/22 10:15:42;;;;;;;5.88;0.80;;;;;;;-146.48;100.00;-6572.31;5303311;28;20024;-71
2022/10/22 10:18:45;;;;;;;5.50;0.73;;;;;;;-146.48;100.00;-6385.19;5303018;28;20032;-69
2022/10/22 10:21:43;;;;;;;6.53;0.63;;;;;;;-146.48;100.00;-6446.25;5277357;28;20387;-69
2022/10/22 10:24:44;;;;;;;5.93;0.93;;;;;;;-146.48;100.00;-6152.72;5302774;28;20071;-70
2022/10/22 10:27:43;;;;;;;6.38;0.77;;;;;;;-146.48;100.00;-6058.19;5303567;28;20066;-70
2022/10/22 10:30:18;;;;;;;4.18;0.57;;;;;;;-146.48;100.00;-5985.28;5280498;28;20036;-70
2022/10/22 10:33:04;;;;;;;6.82;0.60;;;;;;;-146.48;100.00;-5806.00;5302260;28;20129;-70
2022/10/22 10:36:05;;;;;;;6.97;0.60;;;;;;;-146.48;100.00;-5829.66;5302957;28;20080;-70
2022/10/22 10:39:00;;;;;;;5.32;0.55;;;;;;;-146.48;100.00;-5382.41;5302067;28;20382;-70
2022/10/22 10:41:51;;;;;;;7.97;0.85;;;;;;;-146.48;100.00;-5437.56;5303044;28;20532;-70
2022/10/22 10:44:47;;;;;;;7.80;0.77;;;;;;;-146.48;100.00;-5331.16;5303834;28;20150;-70
2022/10/22 10:47:37;;;;;;;9.07;0.70;;;;;;;-146.48;100.00;-5396.19;5303254;28;20020;-70
2022/10/22 10:50:28;;;;;;;8.85;0.65;;;;;;;-146.48;100.00;-5193.25;5303229;28;20517;-70
2022/10/22 10:53:37;;;;;;;5.70;0.50;;;;;;;-146.48;100.00;-5175.50;5302792;28;20383;-69
2022/10/22 10:56:08;;;;;;;;;;;;;;;-146.48;100.00;-4446.38;5303789;28;20518;-69
2022/10/22 10:59:05;;;;;;;4.25;0.50;;;;;;;-146.48;100.00;-3916.16;5301680;28;19995;-70
2022/10/22 11:02:01;;;;;;;5.00;0.52;;;;;;;-146.48;100.00;-3931.94;5302757;28;20727;-70
2022/10/22 11:04:56;;;;;;;2.85;0.50;;;;;;;-146.48;100.00;-3454.91;5302670;28;20024;-70
2022/10/22 11:07:39;;;;;;;6.82;0.65;;;;;;;-146.48;100.00;-3198.63;5301807;28;20540;-70
2022/10/22 11:10:29;;;;;;;7.63;1.08;;;;;;;-146.48;100.00;-2964.00;5302981;28;20481;-69
2022/10/22 11:13:08;;;;;;;5.13;0.60;;;;;;;-146.48;100.00;-3048.78;5302237;28;20031;-70
2022/10/22 11:15:44;;;;;;;11.85;1.55;;;;;;;-146.48;100.00;-2928.50;5302209;28;20032;-69
2022/10/22 11:18:38;;;;;;;7.30;0.70;;;;;;;-146.48;100.00;-2281.78;5302895;28;20056;-70
2022/10/22 11:21:23;;;;;;;6.63;0.90;;;;;;;-146.48;100.00;-2181.19;5293927;28;20094;-70
2022/10/22 11:24:09;;;;;;;7.47;0.65;;;;;;;-146.48;100.00;-1885.38;5302411;28;20028;-72
2022/10/22 11:26:46;;;;;;;5.82;0.93;;;;;;;-146.48;100.00;-1617.16;5302302;28;20032;-72
2022/10/22 11:29:24;;;;;;;7.00;0.80;;;;;;;-146.48;100.00;-1571.81;5301015;28;20132;-72
2022/10/22 11:31:56;;;;;;;6.70;0.65;;;;;;;-146.48;100.00;-1390.34;5302614;28;20093;-72
2022/10/22 11:34:39;;;;;;;6.20;0.80;;;;;;;-146.48;100.00;-768.97;5301231;28;20032;-72
2022/10/22 11:37:12;;;;;;;6.10;0.60;;;;;;;-146.48;100.00;-621.03;5302616;28;20043;-72
2022/10/22 11:39:51;;;;;;;5.18;0.73;;;;;;;-146.48;100.00;-80.44;5301461;28;20161;-72
2022/10/22 11:42:33;;;;;;;5.82;0.60;;;;;;;-146.48;100.00;716.78;5301593;28;20075;-72